Ana Sayfa
METAR-TAF:

METAR-TAF

Havaalanları :

Shantou, Çin

Enlem: 23-24N, Boylam: 116-41E, yükseklik: 3 m

Güncel hava durumu gözlemi

Rapor saat 11:00 UTC de 45 dakika önce yapıldı.
Rüzgar doğudan 4 kt
Sıcaklık 27°C
Nem 66%
Basınç 1011 hPa
Görüş mesafesi 10 km veya daha fazla
1500 m altında bulut yok ve kümülonimbus yok

METAR: ZGOW 121100Z 10002MPS CAVOK 27/20 Q1011 NOSIG

Saat: 19:45 (11:45 UTC)

Tahmin

Rapor saat 09:06 UTC de 2 saat ve 39 dakika önce yapıldı.
Ayın 12'si saat 12 UTC'den ayın 13'si saat 12 UTC'ye kadar geçerli Tahmin
Rüzgar güneydan 6 kt
Görüş mesafesi: 5000 m
5000 ft yükseklikte parçalı bulutlu
Pus
Geçici
ayın 12'si saat 22 UTC'den ayın 13'si saat 02 UTC'ye kadar
Görüş mesafesi: 2100 m

TAF: ZGOW 120906Z 1212/1312 18003MPS 5000 BR SCT050 TX31/1306Z TN21/1222Z TEMPO 1222/1302 2100

4.000'den fazla havaalanı için hava durumu gözlemleri ve tahminleri (METAR ve TAF raporları).

Kullanılabilir istasyonlar harita üzerinde sarı ve kırmızı noktalarla gösterilir.

İstasyonun adını görmek için fareyi noktanın üzerinde gezdirin.

Sonrasında hava gözlem ve tahminlerini görmek için tıklayın.

Haritayı değiştirmek için: yaklaştırmak için siyah artı işaretli yeşil düğmeye ve uzaklaştırmak için de eksi işaretli düğmeye hızla tıklayın; bitişik haritalar için yeşil okları kullanın.


METAR-TAF: